createdAt,value
2018-11-28T00:00:30.211Z,8.97
2018-11-28T00:03:01.713Z,10.10
2018-11-28T00:05:30.896Z,8.83
2018-11-28T00:07:59.720Z,8.20
2018-11-28T00:10:28.520Z,7.63
2018-11-28T00:12:57.323Z,8.80
2018-11-28T00:15:26.137Z,8.73
2018-11-28T00:17:54.959Z,8.57
2018-11-28T00:20:24.060Z,8.93
2018-11-28T00:22:53.096Z,9.70
2018-11-28T00:25:22.249Z,9.18
2018-11-28T00:27:51.119Z,8.57
2018-11-28T00:30:24.031Z,8.30
2018-11-28T00:32:52.891Z,8.87
2018-11-28T00:35:23.113Z,9.40
2018-11-28T00:37:52.027Z,9.53
2018-11-28T00:40:22.185Z,8.50
2018-11-28T00:42:50.981Z,9.43
2018-11-28T00:45:23.968Z,8.10
2018-11-28T00:47:52.819Z,8.33
2018-11-28T00:50:26.163Z,8.80
2018-11-28T00:52:55.000Z,8.57
2018-11-28T00:55:23.819Z,10.33
2018-11-28T00:57:52.621Z,9.20
2018-11-28T01:00:23.299Z,9.13
2018-11-28T01:02:52.133Z,8.23
2018-11-28T01:05:21.212Z,8.60
2018-11-28T01:07:52.348Z,8.63
2018-11-28T01:10:22.436Z,7.93
2018-11-28T01:12:52.222Z,9.70
2018-11-28T01:15:21.578Z,9.33
2018-11-28T01:17:50.377Z,8.60
2018-11-28T01:20:21.219Z,9.03
2018-11-28T01:22:50.009Z,8.97
2018-11-28T01:25:20.708Z,9.20
2018-11-28T01:27:50.066Z,8.67
2018-11-28T01:30:22.284Z,10.03
2018-11-28T01:32:51.163Z,10.37
2018-11-28T01:35:20.806Z,10.90
2018-11-28T01:37:49.668Z,9.77
2018-11-28T01:40:23.088Z,9.97
2018-11-28T01:42:52.495Z,9.10
2018-11-28T01:45:22.734Z,9.63
2018-11-28T01:47:51.555Z,10.33
2018-11-28T01:50:21.628Z,10.27
2018-11-28T01:52:50.545Z,10.50
2018-11-28T01:55:20.918Z,10.70
2018-11-28T01:57:49.747Z,11.00
2018-11-28T02:00:21.224Z,10.47
2018-11-28T02:02:53.453Z,10.37
2018-11-28T02:05:22.268Z,10.17
2018-11-28T02:07:51.781Z,9.90
2018-11-28T02:10:20.652Z,10.40
2018-11-28T02:12:49.424Z,11.23
2018-11-28T02:15:20.456Z,10.57
2018-11-28T02:17:49.261Z,12.17
2018-11-28T02:20:18.481Z,11.33
2018-11-28T02:22:47.336Z,12.00
2018-11-28T02:25:18.213Z,11.33
2018-11-28T02:27:47.616Z,11.33
2018-11-28T02:30:18.539Z,10.53
2018-11-28T02:32:48.491Z,11.03
2018-11-28T02:35:18.087Z,14.07
2018-11-28T02:37:47.167Z,12.80
2018-11-28T02:40:20.743Z,11.43
2018-11-28T02:42:50.542Z,12.67
2018-11-28T02:45:21.707Z,13.47
2018-11-28T02:47:51.517Z,11.57
2018-11-28T02:50:20.327Z,13.27
2018-11-28T02:52:49.158Z,11.23
2018-11-28T02:55:18.676Z,11.97
2018-11-28T02:57:49.851Z,12.20
2018-11-28T03:00:26.537Z,12.53
2018-11-28T03:02:55.316Z,12.27
2018-11-28T03:05:24.125Z,14.83
2018-11-28T03:07:53.657Z,12.33
2018-11-28T03:10:23.603Z,14.00
2018-11-28T03:12:52.452Z,12.73
2018-11-28T03:15:28.076Z,12.53
2018-11-28T03:17:56.883Z,14.87
2018-11-28T03:20:25.774Z,13.67
2018-11-28T03:22:54.582Z,14.10
2018-11-28T03:25:23.389Z,11.47
2018-11-28T03:27:52.180Z,13.33
2018-11-28T03:30:21.019Z,12.43
2018-11-28T03:32:49.907Z,14.27
2018-11-28T03:35:18.672Z,12.57
2018-11-28T03:37:47.870Z,13.80
2018-11-28T03:40:16.724Z,13.20
2018-11-28T03:42:45.549Z,12.73
2018-11-28T03:45:15.616Z,11.53
2018-11-28T03:47:45.481Z,12.57
2018-11-28T03:50:15.524Z,11.75
2018-11-28T03:52:44.364Z,12.20
2018-11-28T03:55:14.318Z,12.17
2018-11-28T03:57:44.643Z,11.87
2018-11-28T04:00:17.103Z,12.33
2018-11-28T04:02:45.955Z,11.97
2018-11-28T04:05:14.836Z,11.47
2018-11-28T04:07:43.657Z,12.87
2018-11-28T04:10:14.227Z,13.07
2018-11-28T04:12:43.981Z,12.47
2018-11-28T04:15:18.243Z,12.75
2018-11-28T04:17:47.642Z,13.27
2018-11-28T04:20:18.895Z,12.57
2018-11-28T04:22:47.721Z,14.00
2018-11-28T04:25:18.060Z,13.60
2018-11-28T04:27:46.958Z,11.67
2018-11-28T04:30:18.231Z,12.77
2018-11-28T04:32:48.270Z,11.97
2018-11-28T04:35:17.109Z,13.40
2018-11-28T04:37:46.539Z,14.67
2018-11-28T04:40:17.621Z,12.70
2018-11-28T04:42:47.296Z,11.57
2018-11-28T04:45:19.625Z,13.63
2018-11-28T04:47:48.484Z,13.17
2018-11-28T04:50:17.338Z,12.70
2018-11-28T04:52:46.772Z,13.33
2018-11-28T04:55:18.116Z,12.80
2018-11-28T04:57:47.240Z,11.20
2018-11-28T05:00:19.591Z,12.70
2018-11-28T05:02:48.679Z,11.67
2018-11-28T05:05:17.617Z,13.63
2018-11-28T05:07:47.345Z,12.53
2018-11-28T05:10:20.783Z,14.07
2018-11-28T05:12:50.661Z,14.90
2018-11-28T05:15:20.924Z,14.53
2018-11-28T05:17:51.027Z,14.60
2018-11-28T05:20:21.384Z,14.43
2018-11-28T05:22:50.200Z,14.67
2018-11-28T05:25:20.192Z,14.33
2018-11-28T05:27:49.985Z,15.10
2018-11-28T05:30:22.471Z,14.63
2018-11-28T05:32:51.270Z,15.17
2018-11-28T05:35:25.878Z,15.57
2018-11-28T05:37:55.266Z,16.33
2018-11-28T05:40:26.442Z,15.23
2018-11-28T05:42:55.588Z,15.73
2018-11-28T05:45:24.409Z,16.80
2018-11-28T05:47:53.794Z,16.13
2018-11-28T05:50:23.033Z,16.47
2018-11-28T05:52:51.945Z,14.77
2018-11-28T05:55:22.252Z,15.25
2018-11-28T05:57:51.151Z,16.27
2018-11-28T06:00:36.689Z,14.60
2018-11-28T06:03:07.324Z,15.17
2018-11-28T06:05:36.208Z,16.47
2018-11-28T06:08:05.488Z,15.90
2018-11-28T06:10:34.591Z,15.60
2018-11-28T06:13:03.467Z,16.37
2018-11-28T06:15:32.325Z,17.60
2018-11-28T06:18:01.135Z,16.87
2018-11-28T06:20:29.983Z,19.37
2018-11-28T06:22:58.813Z,17.07
2018-11-28T06:25:27.626Z,17.73
2018-11-28T06:27:56.452Z,17.80
2018-11-28T06:30:25.520Z,18.50
2018-11-28T06:32:54.342Z,18.97
2018-11-28T06:35:23.123Z,18.37
2018-11-28T06:37:51.929Z,20.03
2018-11-28T06:40:24.014Z,18.27
2018-11-28T06:42:49.642Z,18.97
2018-11-28T06:45:20.416Z,18.62
2018-11-28T06:47:49.199Z,18.03
2018-11-28T06:50:19.222Z,19.13
2018-11-28T06:52:51.158Z,17.73
2018-11-28T06:55:21.973Z,18.93
2018-11-28T06:57:50.814Z,20.13
2018-11-28T07:00:21.952Z,20.50
2018-11-28T07:02:52.194Z,19.03
2018-11-28T07:05:21.897Z,20.63
2018-11-28T07:07:50.985Z,19.07
2018-11-28T07:10:21.922Z,19.37
2018-11-28T07:12:51.015Z,19.50
2018-11-28T07:15:22.147Z,19.67
2018-11-28T07:17:50.967Z,18.93
2018-11-28T07:20:19.770Z,18.97
2018-11-28T07:22:48.560Z,18.53
2018-11-28T07:25:19.116Z,18.40
2018-11-28T07:27:48.972Z,19.53
2018-11-28T07:30:20.255Z,19.23
2018-11-28T07:32:50.978Z,19.10
2018-11-28T07:35:19.804Z,19.03
2018-11-28T07:37:48.604Z,18.97
2018-11-28T07:40:25.861Z,19.77
2018-11-28T07:43:11.255Z,19.33
2018-11-28T07:45:44.142Z,17.83
2018-11-28T07:48:12.947Z,18.90
2018-11-28T07:50:41.756Z,19.37
2018-11-28T07:53:10.866Z,19.43
2018-11-28T07:55:39.746Z,20.10
2018-11-28T07:58:08.592Z,18.30
2018-11-28T08:00:37.957Z,21.57
2018-11-28T08:03:08.797Z,19.00
2018-11-28T08:05:38.941Z,17.63
2018-11-28T08:08:10.444Z,18.67
2018-11-28T08:10:39.297Z,18.67
2018-11-28T08:13:09.602Z,18.50
2018-11-28T08:15:38.431Z,18.50
2018-11-28T08:18:07.263Z,18.70
2018-11-28T08:20:36.390Z,20.43
2018-11-28T08:23:05.502Z,21.90
2018-11-28T08:25:34.592Z,20.63
2018-11-28T08:28:03.483Z,22.27
2018-11-28T08:30:32.320Z,19.10
2018-11-28T08:33:01.154Z,18.37
2018-11-28T08:35:30.282Z,19.43
2018-11-28T08:38:05.899Z,24.90
2018-11-28T08:40:34.747Z,23.23
2018-11-28T08:43:03.918Z,19.57
2018-11-28T08:45:32.718Z,19.10
2018-11-28T08:48:01.610Z,16.53
2018-11-28T08:50:33.600Z,18.70
2018-11-28T08:53:02.847Z,17.17
2018-11-28T08:55:31.656Z,17.27
2018-11-28T08:58:00.464Z,17.07
2018-11-28T09:00:29.284Z,18.53
2018-11-28T09:02:58.773Z,18.00
2018-11-28T09:05:27.693Z,17.98
2018-11-28T09:07:56.487Z,17.93
2018-11-28T09:10:25.333Z,17.50
2018-11-28T09:12:54.121Z,19.73
2018-11-28T09:15:27.705Z,17.70
2018-11-28T09:17:56.812Z,19.17
2018-11-28T09:20:25.604Z,17.70
2018-11-28T09:22:54.455Z,17.10
2018-11-28T09:25:23.269Z,16.13
2018-11-28T09:27:53.903Z,16.20
2018-11-28T09:30:22.707Z,14.80
2018-11-28T09:32:51.769Z,15.87
2018-11-28T09:35:20.938Z,15.67
2018-11-28T09:37:50.315Z,16.93
2018-11-28T09:40:20.729Z,15.63
2018-11-28T09:42:50.612Z,17.57
2018-11-28T09:45:20.150Z,14.10
2018-11-28T09:47:48.952Z,14.57
2018-11-28T09:50:19.232Z,15.13
2018-11-28T09:52:48.140Z,14.33
2018-11-28T09:55:20.485Z,14.07
2018-11-28T09:57:49.684Z,16.13
2018-11-28T10:00:23.915Z,11.43
2018-11-28T10:02:54.972Z,13.50
2018-11-28T10:05:27.337Z,13.87
2018-11-28T10:07:59.328Z,11.70
2018-11-28T10:10:28.219Z,13.87
2018-11-28T10:12:57.114Z,14.30
2018-11-28T10:15:27.933Z,11.47
2018-11-28T10:17:56.786Z,12.37
2018-11-28T10:20:25.579Z,10.90
2018-11-28T10:22:54.409Z,11.33
2018-11-28T10:25:26.259Z,10.90
2018-11-28T10:28:00.852Z,9.33
2018-11-28T10:30:32.467Z,10.83
2018-11-28T10:33:01.496Z,8.53
2018-11-28T10:35:30.388Z,10.57
2018-11-28T10:37:59.219Z,9.10
2018-11-28T10:40:28.087Z,13.70
2018-11-28T10:42:58.431Z,10.17
2018-11-28T10:45:28.520Z,9.57
2018-11-28T10:47:57.380Z,8.33
2018-11-28T10:50:26.223Z,10.03
2018-11-28T10:52:55.020Z,11.90
2018-11-28T10:55:25.325Z,9.30
2018-11-28T10:57:54.145Z,8.63
2018-11-28T11:00:35.772Z,8.60
2018-11-28T11:03:11.449Z,6.90
2018-11-28T11:05:45.577Z,11.57
2018-11-28T11:08:19.739Z,7.20
2018-11-28T11:10:53.859Z,8.00
2018-11-28T11:13:27.938Z,7.27
2018-11-28T11:15:58.009Z,8.10
2018-11-28T11:18:27.692Z,6.83
2018-11-28T11:20:56.407Z,9.07
2018-11-28T11:23:25.304Z,8.73
2018-11-28T11:25:54.262Z,9.50
2018-11-28T11:28:23.140Z,11.23
2018-11-28T11:30:52.162Z,8.37
2018-11-28T11:33:21.045Z,7.63
2018-11-28T11:35:49.858Z,7.80
2018-11-28T11:38:18.654Z,11.90
2018-11-28T11:40:47.441Z,8.30
2018-11-28T11:43:16.287Z,7.20
2018-11-28T11:45:45.086Z,7.87
2018-11-28T11:48:13.881Z,7.20
2018-11-28T11:50:42.670Z,6.47
2018-11-28T11:53:11.951Z,8.63
2018-11-28T11:55:40.725Z,7.20
2018-11-28T11:58:09.503Z,6.77
2018-11-28T12:00:40.741Z,8.47
2018-11-28T12:03:11.553Z,7.03
2018-11-28T12:05:43.074Z,6.95
2018-11-28T12:08:11.882Z,7.57
2018-11-28T12:10:40.669Z,5.95
2018-11-28T12:13:09.776Z,5.93
2018-11-28T12:15:38.630Z,8.77
2018-11-28T12:18:07.778Z,7.90
2018-11-28T12:20:56.794Z,6.57
2018-11-28T12:23:25.572Z,6.10
2018-11-28T12:25:54.361Z,7.77
2018-11-28T12:28:23.488Z,6.30
2018-11-28T12:30:52.286Z,6.13
2018-11-28T12:33:21.097Z,6.67
2018-11-28T12:35:49.892Z,6.83
2018-11-28T12:38:18.680Z,6.67
2018-11-28T12:40:47.467Z,7.07
2018-11-28T12:43:16.258Z,8.13
2018-11-28T12:45:47.199Z,6.67
2018-11-28T12:48:16.050Z,6.90
2018-11-28T12:50:44.899Z,6.20
2018-11-28T12:53:14.485Z,7.40
2018-11-28T12:55:43.247Z,7.33
2018-11-28T12:58:15.189Z,6.73
2018-11-28T13:00:44.015Z,7.37
2018-11-28T13:03:14.931Z,5.70
2018-11-28T13:05:43.759Z,7.57
2018-11-28T13:08:12.519Z,8.40
2018-11-28T13:10:42.029Z,6.27
2018-11-28T13:13:12.256Z,6.63
2018-11-28T13:15:41.087Z,7.03
2018-11-28T13:18:11.257Z,9.13
2018-11-28T13:20:41.700Z,6.83
2018-11-28T13:23:12.418Z,6.83
2018-11-28T13:25:41.229Z,9.50
2018-11-28T13:28:10.070Z,6.70
2018-11-28T13:30:39.154Z,6.87
2018-11-28T13:33:08.804Z,7.33
2018-11-28T13:35:38.102Z,6.37
2018-11-28T13:38:10.925Z,7.37
2018-11-28T13:40:40.022Z,6.73
2018-11-28T13:43:08.827Z,8.23
2018-11-28T13:45:41.845Z,11.47
2018-11-28T13:48:10.717Z,6.77
2018-11-28T13:50:39.494Z,7.70
2018-11-28T13:53:14.829Z,7.80
2018-11-28T13:56:57.422Z,7.37
2018-11-28T13:58:22.050Z,7.67
2018-11-28T14:00:50.860Z,13.38
2018-11-28T14:03:19.657Z,9.70
2018-11-28T14:05:48.465Z,8.30
2018-11-28T14:08:17.258Z,8.00
2018-11-28T14:10:46.044Z,7.87
2018-11-28T14:13:15.389Z,18.97
2018-11-28T14:15:43.933Z,9.77
2018-11-28T14:18:15.680Z,7.63
2018-11-28T14:20:44.567Z,9.63
2018-11-28T14:23:13.359Z,9.47
2018-11-28T14:25:42.191Z,8.65
2018-11-28T14:28:11.389Z,8.53
2018-11-28T14:30:40.179Z,8.93
2018-11-28T14:33:08.966Z,8.10
2018-11-28T14:35:38.087Z,10.25
2018-11-28T14:38:06.896Z,9.13
2018-11-28T14:40:35.860Z,8.07
2018-11-28T14:43:04.750Z,7.77
2018-11-28T14:45:33.703Z,8.03
2018-11-28T14:48:02.619Z,8.57
2018-11-28T14:50:31.466Z,7.53
2018-11-28T14:53:01.870Z,8.20
2018-11-28T14:55:35.276Z,8.43
2018-11-28T14:58:04.169Z,6.53
2018-11-28T15:00:33.435Z,9.70
2018-11-28T15:03:06.937Z,7.13
2018-11-28T15:05:48.716Z,6.63
2018-11-28T15:08:18.854Z,6.97
2018-11-28T15:10:56.885Z,8.27
2018-11-28T15:13:26.085Z,6.93
2018-11-28T15:15:54.919Z,9.10
2018-11-28T15:18:24.048Z,8.87
2018-11-28T15:20:52.914Z,8.63
2018-11-28T15:23:21.704Z,7.77
2018-11-28T15:25:50.521Z,7.93
2018-11-28T15:28:19.304Z,8.07
2018-11-28T15:30:48.097Z,6.60
2018-11-28T15:33:16.890Z,8.27
2018-11-28T15:35:46.043Z,9.70
2018-11-28T15:38:14.823Z,9.13
2018-11-28T15:40:43.603Z,8.77
2018-11-28T15:43:12.404Z,7.40
2018-11-28T15:45:41.289Z,8.90
2018-11-28T15:48:10.096Z,9.80
2018-11-28T15:50:38.919Z,7.10
2018-11-28T15:53:07.763Z,7.43
2018-11-28T15:55:36.548Z,8.27
2018-11-28T15:58:05.904Z,9.67
2018-11-28T16:00:34.724Z,9.37
2018-11-28T16:03:03.547Z,8.47
2018-11-28T16:05:32.344Z,6.90
2018-11-28T16:08:01.157Z,7.40
2018-11-28T16:10:35.191Z,11.67
2018-11-28T16:13:04.013Z,8.43
2018-11-28T16:15:36.373Z,11.13
2018-11-28T16:18:05.276Z,8.93
2018-11-28T16:20:34.307Z,8.17
2018-11-28T16:23:04.663Z,8.73
2018-11-28T16:25:31.970Z,7.47
2018-11-28T16:28:00.777Z,9.57
2018-11-28T16:30:29.639Z,11.60
2018-11-28T16:32:58.473Z,9.60
2018-11-28T16:35:27.284Z,8.90
2018-11-28T16:37:56.403Z,8.13
2018-11-28T16:40:25.222Z,8.03
2018-11-28T16:42:54.021Z,8.57
2018-11-28T16:45:22.852Z,9.73
2018-11-28T16:47:51.643Z,11.83
2018-11-28T16:50:20.498Z,13.37
2018-11-28T16:52:49.310Z,10.30
2018-11-28T16:55:18.543Z,10.27
2018-11-28T16:57:53.174Z,9.07
2018-11-28T17:00:27.863Z,11.03
2018-11-28T17:02:57.400Z,9.77
2018-11-28T17:05:26.255Z,11.40
2018-11-28T17:07:55.114Z,10.50
2018-11-28T17:10:26.607Z,10.73
2018-11-28T17:12:56.519Z,9.30
2018-11-28T17:15:25.373Z,12.83
2018-11-28T17:17:54.797Z,12.07
2018-11-28T17:20:25.271Z,13.07
2018-11-28T17:22:56.109Z,12.23
2018-11-28T17:25:27.583Z,11.53
2018-11-28T17:27:56.417Z,9.67
2018-11-28T17:30:29.638Z,11.60
2018-11-28T17:32:58.475Z,13.50
2018-11-28T17:35:27.302Z,11.33
2018-11-28T17:37:56.498Z,13.17
2018-11-28T17:40:27.933Z,11.70
2018-11-28T17:42:58.365Z,10.47
2018-11-28T17:45:28.117Z,10.70
2018-11-28T17:47:56.931Z,12.73
2018-11-28T17:50:26.676Z,10.97
2018-11-28T17:53:08.565Z,12.20
2018-11-28T17:55:47.074Z,10.83
2018-11-28T17:58:15.935Z,12.03
2018-11-28T18:00:44.712Z,11.80
2018-11-28T18:03:13.532Z,11.17
2018-11-28T18:05:42.352Z,11.57
2018-11-28T18:08:11.153Z,10.77
2018-11-28T18:10:39.981Z,11.00
2018-11-28T18:13:14.331Z,12.07
2018-11-28T18:15:47.437Z,11.97
2018-11-28T18:18:20.447Z,11.63
2018-11-28T18:20:50.343Z,11.60
2018-11-28T18:23:18.422Z,11.07
2018-11-28T18:25:47.611Z,12.30
2018-11-28T18:28:16.448Z,13.83
2018-11-28T18:30:45.271Z,10.10
2018-11-28T18:33:14.708Z,12.20
2018-11-28T18:35:44.172Z,12.43
2018-11-28T18:38:12.964Z,12.17
2018-11-28T18:40:41.830Z,13.53
2018-11-28T18:43:11.396Z,10.43
2018-11-28T18:45:46.817Z,13.73
2018-11-28T18:48:15.624Z,14.40
2018-11-28T18:50:44.423Z,13.53
2018-11-28T18:53:13.213Z,13.90
2018-11-28T18:55:42.577Z,14.13
2018-11-28T18:58:12.637Z,11.47
2018-11-28T19:00:41.499Z,12.13
2018-11-28T19:03:10.305Z,13.97
2018-11-28T19:05:39.174Z,12.47
2018-11-28T19:08:08.550Z,13.70
2018-11-28T19:10:37.415Z,15.70
2018-11-28T19:13:06.287Z,15.53
2018-11-28T19:15:35.135Z,13.78
2018-11-28T19:18:04.450Z,13.73
2018-11-28T19:20:34.082Z,15.33
2018-11-28T19:23:02.915Z,18.27
2018-11-28T19:25:32.046Z,15.30
2018-11-28T19:28:00.886Z,15.10
2018-11-28T19:30:38.523Z,15.13
2018-11-28T19:33:10.219Z,21.33
2018-11-28T19:35:39.372Z,17.90
2018-11-28T19:38:11.107Z,15.77
2018-11-28T19:40:56.229Z,16.37
2018-11-28T19:43:25.106Z,15.67
2018-11-28T19:45:53.919Z,17.90
2018-11-28T19:48:22.736Z,16.87
2018-11-28T19:50:51.551Z,16.40
2018-11-28T19:53:20.339Z,17.87
2018-11-28T19:55:49.477Z,18.50
2018-11-28T19:58:18.267Z,18.60
2018-11-28T20:00:47.621Z,18.67
2018-11-28T20:03:16.427Z,18.50
2018-11-28T20:05:45.224Z,17.87
2018-11-28T20:08:14.131Z,17.87
2018-11-28T20:10:42.987Z,19.80
2018-11-28T20:13:11.901Z,18.57
2018-11-28T20:15:43.905Z,17.60
2018-11-28T20:18:13.141Z,17.27
2018-11-28T20:20:42.085Z,21.03
2018-11-28T20:23:10.904Z,20.77
2018-11-28T20:25:40.068Z,19.67
2018-11-28T20:28:09.857Z,19.17
2018-11-28T20:30:42.482Z,19.37
2018-11-28T20:33:12.241Z,21.20
2018-11-28T20:35:42.563Z,19.50
2018-11-28T20:38:19.630Z,20.73
2018-11-28T20:40:47.954Z,19.23
2018-11-28T20:43:16.769Z,18.90
2018-11-28T20:45:45.610Z,23.00
2018-11-28T20:48:14.433Z,21.57
2018-11-28T20:50:43.237Z,21.03
2018-11-28T20:53:14.446Z,24.93
2018-11-28T20:55:43.265Z,18.55
2018-11-28T20:58:12.048Z,20.80
2018-11-28T21:00:41.306Z,21.48
2018-11-28T21:03:10.175Z,21.17
2018-11-28T21:05:39.049Z,20.47
2018-11-28T21:08:09.686Z,23.13
2018-11-28T21:10:40.042Z,20.97
2018-11-28T21:13:12.421Z,21.30
2018-11-28T21:15:42.611Z,21.43
2018-11-28T21:18:11.444Z,23.57
2018-11-28T21:20:42.670Z,22.83
2018-11-28T21:23:15.151Z,24.67
2018-11-28T21:25:44.401Z,21.80
2018-11-28T21:28:13.209Z,23.37
2018-11-28T21:30:42.071Z,24.07
2018-11-28T21:33:12.788Z,23.83
2018-11-28T21:35:45.627Z,23.13
2018-11-28T21:38:15.035Z,23.73
2018-11-28T21:40:43.825Z,29.43
2018-11-28T21:43:13.408Z,25.53
2018-11-28T21:45:42.283Z,25.97
2018-11-28T21:48:11.064Z,27.27
2018-11-28T21:50:39.887Z,29.35
2018-11-28T21:53:09.577Z,24.87
2018-11-28T21:55:38.433Z,25.40
2018-11-28T21:58:07.239Z,26.50
2018-11-28T22:00:37.517Z,23.03
2018-11-28T22:03:07.224Z,25.40
2018-11-28T22:05:36.062Z,22.43
2018-11-28T22:08:05.013Z,24.47
2018-11-28T22:10:33.959Z,26.05
2018-11-28T22:13:02.743Z,21.43
2018-11-28T22:15:31.611Z,22.63
2018-11-28T22:18:00.508Z,23.30
2018-11-28T22:20:29.294Z,22.67
2018-11-28T22:22:58.311Z,21.07
2018-11-28T22:25:27.991Z,21.70
2018-11-28T22:27:56.986Z,22.27
2018-11-28T22:30:27.229Z,24.70
2018-11-28T22:32:56.170Z,24.93
2018-11-28T22:35:27.077Z,21.70
2018-11-28T22:37:56.098Z,23.30
2018-11-28T22:40:26.827Z,27.90
2018-11-28T22:42:55.705Z,22.83
2018-11-28T22:45:29.396Z,23.73
2018-11-28T22:47:58.232Z,24.87
2018-11-28T22:50:27.592Z,24.25
2018-11-28T22:52:56.419Z,24.70
2018-11-28T22:55:25.199Z,25.33
2018-11-28T22:57:54.041Z,29.47
2018-11-28T23:00:29.360Z,28.00
2018-11-28T23:03:07.721Z,23.70
2018-11-28T23:05:44.840Z,24.07
2018-11-28T23:08:15.243Z,28.00
2018-11-28T23:10:44.045Z,26.00
2018-11-28T23:13:14.616Z,25.83
2018-11-28T23:15:43.439Z,25.87
2018-11-28T23:18:12.467Z,33.13
2018-11-28T23:20:41.260Z,24.90
2018-11-28T23:23:10.176Z,26.93
2018-11-28T23:25:39.009Z,26.97
2018-11-28T23:28:09.041Z,25.80
2018-11-28T23:30:38.664Z,30.20
2018-11-28T23:33:09.490Z,27.53
2018-11-28T23:35:38.413Z,28.53
2018-11-28T23:38:07.967Z,26.80
2018-11-28T23:40:36.771Z,29.52
2018-11-28T23:43:06.133Z,29.53
2018-11-28T23:45:34.983Z,29.43
2018-11-28T23:48:03.795Z,30.93
2018-11-28T23:50:32.955Z,30.73
2018-11-28T23:53:01.757Z,28.43
2018-11-28T23:55:31.609Z,30.90
2018-11-28T23:58:00.445Z,28.07
